Time;durP1;ratioP1;P1;durP2;ratioP2;P2;SDS_P1;SDS_P2;PMS_P1;PMS_P2;Temp;Humidity;BMP_temperature;BMP_pressure;BME280_temperature;BME280_humidity;BME280_pressure;Samples;Min_cycle;Max_cycle;Signal;HPM_P1;HPM_P2
2021/12/17 00:02:57;;;;;;;27.25;10.52;;;6.20;91.20;;;;;;6275790;28;20056;-79
2021/12/17 00:05:52;;;;;;;26.73;12.57;;;6.20;91.10;;;;;;6275816;28;20056;-78
2021/12/17 00:08:56;;;;;;;24.15;11.00;;;6.30;91.10;;;;;;6276163;28;20045;-78
2021/12/17 00:11:58;;;;;;;26.92;10.63;;;6.40;91.00;;;;;;6275839;28;20049;-78
2021/12/17 00:15:01;;;;;;;25.98;11.68;;;6.50;90.90;;;;;;6276164;28;20498;-78
2021/12/17 00:18:11;;;;;;;26.98;10.70;;;6.50;90.90;;;;;;6275910;28;20033;-78
2021/12/17 00:51:55;;;;;;;23.08;11.15;;;7.10;90.00;;;;;;6275642;28;20049;-78
2021/12/17 00:54:58;;;;;;;20.77;9.55;;;7.10;90.00;;;;;;6275149;28;20052;-80
2021/12/17 00:58:00;;;;;;;18.55;10.02;;;7.20;89.90;;;;;;6274558;28;20045;-79
2021/12/17 01:01:02;;;;;;;24.13;11.38;;;7.20;89.80;;;;;;6274107;28;20541;-79
2021/12/17 01:04:04;;;;;;;22.35;10.00;;;7.20;89.60;;;;;;6275057;28;20040;-79
2021/12/17 01:07:07;;;;;;;20.67;10.70;;;7.30;89.40;;;;;;6274959;28;20528;-79
2021/12/17 01:10:15;;;;;;;20.98;9.23;;;7.30;89.30;;;;;;6275229;28;20045;-78
2021/12/17 01:13:17;;;;;;;20.33;8.32;;;7.30;89.10;;;;;;6274725;28;20103;-78
2021/12/17 01:16:19;;;;;;;19.10;9.55;;;7.30;89.10;;;;;;6278293;28;20182;-78
2021/12/17 01:19:41;;;;;;;20.10;9.27;;;7.40;89.10;;;;;;6278793;28;20392;-77
2021/12/17 01:22:58;;;;;;;15.00;7.22;;;7.50;88.60;;;;;;6274373;28;20053;-77
2021/12/17 01:36:13;;;;;;;19.17;9.48;;;7.70;87.80;;;;;;6257298;28;20495;-78
2021/12/17 01:42:34;;;;;;;;;;;7.90;87.40;;;;;;6277243;28;20045;-80
2021/12/17 01:45:39;;;;;;;19.70;10.05;;;8.00;87.00;;;;;;6275208;28;19921;-78
2021/12/17 01:49:04;;;;;;;18.05;8.38;;;8.00;86.40;;;;;;6276141;28;20048;-77
2021/12/17 01:55:49;;;;;;;20.90;9.30;;;8.00;86.40;;;;;;6273806;28;20101;-79
2021/12/17 02:02:13;;;;;;;21.95;9.77;;;8.00;86.40;;;;;;6275903;28;20120;-78
2021/12/17 02:05:15;;;;;;;14.93;8.27;;;7.90;86.30;;;;;;6274107;28;20425;-78
2021/12/17 02:08:23;;;;;;;16.63;8.23;;;7.80;86.50;;;;;;6274780;28;20111;-76
2021/12/17 02:12:10;;;;;;;;;;;7.80;86.70;;;;;;6276118;28;20186;-77
2021/12/17 02:28:46;;;;;;;13.52;7.18;;;7.60;87.70;;;;;;6283590;28;20060;-78
2021/12/17 02:31:54;;;;;;;19.45;9.05;;;7.60;87.50;;;;;;6283337;28;20048;-78
2021/12/17 02:35:14;;;;;;;17.67;7.93;;;7.60;87.70;;;;;;6283056;28;20049;-80
2021/12/17 02:38:18;;;;;;;19.58;8.07;;;7.60;87.80;;;;;;6279845;28;20513;-80
2021/12/17 02:48:01;;;;;;;14.40;6.00;;;7.60;87.50;;;;;;6284679;28;20037;-79
2021/12/17 02:51:03;;;;;;;18.38;9.48;;;7.60;87.50;;;;;;6286180;28;20454;-79
2021/12/17 02:54:07;;;;;;;20.05;9.00;;;7.60;87.60;;;;;;6285785;28;20075;-80
2021/12/17 02:57:12;;;;;;;17.40;9.32;;;7.60;87.60;;;;;;6284064;28;20037;-79
2021/12/17 03:00:15;;;;;;;16.83;9.40;;;7.70;87.90;;;;;;6284536;28;20179;-79
2021/12/17 03:03:20;;;;;;;20.13;10.27;;;7.80;87.60;;;;;;6285896;28;20052;-80
2021/12/17 03:06:22;;;;;;;19.25;8.82;;;7.90;87.30;;;;;;6282572;28;20067;-79
2021/12/17 03:09:42;;;;;;;27.45;9.98;;;7.90;87.10;;;;;;6281209;28;20044;-77
2021/12/17 03:12:47;;;;;;;18.67;9.10;;;8.00;87.10;;;;;;6271793;28;20083;-76
2021/12/17 03:16:03;;;;;;;26.52;10.60;;;8.00;87.00;;;;;;6278639;28;20059;-79
2021/12/17 03:19:13;;;;;;;17.25;9.07;;;8.10;86.90;;;;;;6286961;28;20418;-79
2021/12/17 03:25:35;;;;;;;17.40;8.60;;;8.30;86.40;;;;;;6274986;28;20052;-79
2021/12/17 03:28:42;;;;;;;19.73;9.55;;;8.30;86.20;;;;;;6280077;28;20041;-80
2021/12/17 03:31:44;;;;;;;17.77;9.13;;;8.40;86.10;;;;;;6277957;28;20049;-80
2021/12/17 03:38:09;;;;;;;20.92;9.65;;;8.40;86.10;;;;;;6284787;28;20037;-79
2021/12/17 03:41:20;;;;;;;20.95;8.77;;;8.40;85.90;;;;;;6295618;28;20056;-79
2021/12/17 03:44:22;;;;;;;19.88;9.55;;;8.40;85.90;;;;;;6299158;28;20072;-81
2021/12/17 03:47:25;;;;;;;23.52;9.02;;;8.40;85.80;;;;;;6300043;28;20067;-82
2021/12/17 03:53:45;;;;;;;22.83;9.65;;;8.30;86.00;;;;;;6281013;28;20045;-79
2021/12/17 03:56:55;;;;;;;18.50;8.73;;;8.40;86.00;;;;;;6277571;28;20118;-79
2021/12/17 03:59:59;;;;;;;14.95;7.10;;;8.30;86.00;;;;;;6280454;28;20120;-79
2021/12/17 04:03:07;;;;;;;19.50;8.50;;;8.30;86.30;;;;;;6277616;28;20413;-80
2021/12/17 04:06:09;;;;;;;15.75;8.30;;;8.30;86.70;;;;;;6280929;28;20109;-78
2021/12/17 04:09:11;;;;;;;20.98;10.18;;;8.10;86.80;;;;;;6281182;28;20044;-78
2021/12/17 04:12:18;;;;;;;17.95;10.02;;;8.10;87.10;;;;;;6281793;28;20186;-81
2021/12/17 04:15:34;;;;;;;23.35;8.60;;;8.10;87.20;;;;;;6286817;28;20052;-79
2021/12/17 04:18:46;;;;;;;19.05;8.40;;;8.10;87.10;;;;;;6291420;28;20049;-79
2021/12/17 04:21:52;;;;;;;16.13;8.15;;;8.00;87.60;;;;;;6296341;28;20073;-80
2021/12/17 04:24:54;;;;;;;12.30;5.75;;;8.00;87.50;;;;;;6279619;28;20491;-80
2021/12/17 04:27:58;;;;;;;15.32;8.30;;;7.90;87.60;;;;;;6274210;28;20045;-79
2021/12/17 04:30:59;;;;;;;20.98;10.02;;;7.90;88.00;;;;;;6275766;28;20132;-80
2021/12/17 04:34:01;;;;;;;16.60;9.70;;;7.90;88.10;;;;;;6274287;28;20098;-79
2021/12/17 04:37:04;;;;;;;14.80;8.15;;;7.90;88.20;;;;;;6278183;28;20041;-79
2021/12/17 04:40:07;;;;;;;14.25;7.68;;;7.80;88.50;;;;;;6279529;28;20041;-79
2021/12/17 04:43:17;;;;;;;14.38;7.10;;;7.80;88.80;;;;;;6290908;28;20044;-78
2021/12/17 04:46:28;;;;;;;18.25;10.25;;;7.80;89.00;;;;;;6284368;28;20127;-78
2021/12/17 04:59:27;;;;;;;14.07;7.15;;;7.80;89.00;;;;;;6280511;28;20128;-79
2021/12/17 05:02:36;;;;;;;18.27;9.38;;;8.00;88.90;;;;;;6278110;28;20128;-79
2021/12/17 05:05:38;;;;;;;18.63;8.95;;;8.00;88.90;;;;;;6280062;28;20041;-79
2021/12/17 05:08:42;;;;;;;16.63;8.48;;;8.00;88.60;;;;;;6281143;28;20068;-79
2021/12/17 05:18:37;;;;;;;14.82;7.40;;;8.30;87.90;;;;;;6279325;28;20291;-79
2021/12/17 05:21:39;;;;;;;17.90;9.32;;;8.30;87.50;;;;;;6278081;28;20068;-79
2021/12/17 05:24:41;;;;;;;18.92;9.38;;;8.40;87.50;;;;;;6278709;28;20075;-78
2021/12/17 05:27:42;;;;;;;17.33;8.27;;;8.40;87.40;;;;;;6278136;28;20110;-78
2021/12/17 05:30:47;;;;;;;15.85;8.57;;;8.40;87.30;;;;;;6280829;28;20187;-80
2021/12/17 05:33:49;;;;;;;16.10;8.57;;;8.40;87.30;;;;;;6283518;28;20045;-80
2021/12/17 05:36:51;;;;;;;15.50;7.43;;;8.40;87.80;;;;;;6280117;28;20121;-79
2021/12/17 05:39:55;;;;;;;14.77;6.93;;;8.50;87.10;;;;;;6283243;28;20044;-79
2021/12/17 05:43:00;;;;;;;14.93;7.18;;;8.50;86.90;;;;;;6290060;28;20143;-79
2021/12/17 05:46:09;;;;;;;7.80;5.05;;;8.50;86.80;;;;;;6284847;28;20059;-79
2021/12/17 05:49:10;;;;;;;13.35;6.65;;;8.50;86.60;;;;;;6280932;28;20045;-78
2021/12/17 05:52:12;;;;;;;14.40;6.82;;;8.60;86.70;;;;;;6277547;28;20528;-79
2021/12/17 05:55:14;;;;;;;11.23;5.32;;;8.60;86.60;;;;;;6279236;28;20049;-79
2021/12/17 05:58:16;;;;;;;8.65;4.80;;;8.60;86.30;;;;;;6276166;28;20045;-78
2021/12/17 06:01:20;;;;;;;10.00;5.97;;;8.50;86.40;;;;;;6283330;28;20590;-78
2021/12/17 06:04:22;;;;;;;10.48;4.63;;;8.50;86.40;;;;;;6277898;28;20522;-78
2021/12/17 06:07:28;;;;;;;7.63;4.15;;;8.50;86.10;;;;;;6281714;28;20040;-78
2021/12/17 06:10:30;;;;;;;9.35;5.20;;;8.40;86.10;;;;;;6278373;28;20060;-78
2021/12/17 06:13:31;;;;;;;9.32;5.70;;;8.50;86.20;;;;;;6275971;28;20045;-78
2021/12/17 06:16:35;;;;;;;11.63;5.38;;;8.50;85.80;;;;;;6276420;28;20041;-78
2021/12/17 06:19:37;;;;;;;15.05;5.50;;;8.50;85.80;;;;;;6275839;28;20139;-78
2021/12/17 06:22:39;;;;;;;9.05;5.43;;;8.50;85.40;;;;;;6275877;28;20255;-78
2021/12/17 06:25:41;;;;;;;12.15;5.47;;;8.60;85.30;;;;;;6275875;28;20053;-78
2021/12/17 06:28:42;;;;;;;12.15;5.13;;;8.60;85.10;;;;;;6275756;28;20052;-78
2021/12/17 06:31:46;;;;;;;9.65;4.50;;;8.60;84.90;;;;;;6276678;28;20048;-79
2021/12/17 06:34:49;;;;;;;7.95;4.63;;;8.50;84.90;;;;;;6276888;28;20045;-78
2021/12/17 06:37:51;;;;;;;8.23;5.13;;;8.50;85.10;;;;;;6276344;28;20544;-78
2021/12/17 06:40:53;;;;;;;8.15;4.38;;;8.60;84.80;;;;;;6274608;28;20055;-78
2021/12/17 06:43:57;;;;;;;10.90;4.30;;;8.60;84.60;;;;;;6250687;28;20048;-79
2021/12/17 06:47:05;;;;;;;9.48;4.70;;;8.60;84.50;;;;;;6274382;28;20056;-78
2021/12/17 07:00:16;;;;;;;8.27;4.40;;;8.60;84.20;;;;;;6276364;28;20045;-78
2021/12/17 07:07:00;;;;;;;8.45;4.43;;;8.60;84.00;;;;;;6276762;28;20407;-80
2021/12/17 07:20:48;;;;;;;9.23;4.35;;;8.40;84.10;;;;;;6276488;28;20067;-80
2021/12/17 07:33:37;;;;;;;13.20;4.10;;;8.40;83.80;;;;;;6277444;28;20497;-82
2021/12/17 07:36:43;;;;;;;11.15;5.03;;;8.40;83.60;;;;;;6277503;28;20132;-81
2021/12/17 07:39:44;;;;;;;13.13;4.32;;;8.50;83.50;;;;;;6278647;28;20041;-82
2021/12/17 07:42:46;;;;;;;7.40;4.90;;;8.50;83.10;;;;;;6279348;28;20049;-83
2021/12/17 07:45:47;;;;;;;7.75;4.32;;;8.50;83.60;;;;;;6278393;28;20072;-82
2021/12/17 07:48:50;;;;;;;6.63;3.80;;;8.50;82.70;;;;;;6279075;28;20144;-83
2021/12/17 07:51:53;;;;;;;9.38;4.65;;;8.40;82.50;;;;;;6291390;28;20081;-82
2021/12/17 07:54:55;;;;;;;6.03;3.35;;;8.60;82.50;;;;;;6289196;28;20454;-81
2021/12/17 07:57:56;;;;;;;9.35;3.70;;;8.50;82.20;;;;;;6276988;28;20044;-81
2021/12/17 08:00:58;;;;;;;7.63;4.53;;;8.50;81.80;;;;;;6278406;28;20128;-81
2021/12/17 08:04:00;;;;;;;9.15;4.32;;;8.50;81.80;;;;;;6278340;28;20043;-78
2021/12/17 08:07:04;;;;;;;6.93;3.55;;;8.60;81.80;;;;;;6279232;28;20113;-81
2021/12/17 08:10:06;;;;;;;8.55;3.92;;;8.60;81.60;;;;;;6282383;28;20563;-81
2021/12/17 08:13:14;;;;;;;9.93;4.18;;;8.60;81.50;;;;;;6285795;28;20068;-80
2021/12/17 08:16:30;;;;;;;;;;;8.70;81.30;;;;;;6284167;28;20101;-82
2021/12/17 08:23:35;;;;;;;8.15;4.25;;;8.70;80.80;;;;;;6295535;28;20106;-82
2021/12/17 08:26:41;;;;;;;;;;;8.70;80.60;;;;;;6283219;28;20434;-84
2021/12/17 08:29:52;;;;;;;7.05;3.50;;;8.80;80.50;;;;;;6283460;28;19920;-83
2021/12/17 08:32:54;;;;;;;6.25;3.80;;;8.80;80.00;;;;;;6283859;28;20048;-84
2021/12/17 08:35:57;;;;;;;5.43;3.13;;;8.80;79.90;;;;;;6283024;28;20041;-83
2021/12/17 08:39:01;;;;;;;6.25;3.20;;;8.70;79.50;;;;;;6283550;28;20516;-83
2021/12/17 08:42:03;;;;;;;5.15;2.90;;;8.70;79.30;;;;;;6285051;28;20108;-84
2021/12/17 08:45:07;;;;;;;8.10;3.88;;;8.70;79.30;;;;;;6282016;28;20041;-82
2021/12/17 08:48:09;;;;;;;6.47;3.72;;;8.70;79.30;;;;;;6282309;28;20036;-81
2021/12/17 08:51:11;;;;;;;5.05;2.53;;;8.70;79.30;;;;;;6305228;28;20076;-83
2021/12/17 08:54:14;;;;;;;6.60;3.05;;;8.70;79.30;;;;;;6307928;28;20044;-83
2021/12/17 08:57:16;;;;;;;5.18;2.30;;;8.70;79.50;;;;;;6301885;28;20453;-83
2021/12/17 09:00:18;;;;;;;6.97;3.67;;;8.80;79.10;;;;;;6281681;28;20124;-82
2021/12/17 09:03:19;;;;;;;7.53;2.80;;;9.20;78.40;;;;;;6282867;28;20112;-83
2021/12/17 09:06:24;;;;;;;8.32;2.92;;;9.60;77.00;;;;;;6283068;28;20056;-82
2021/12/17 09:09:27;;;;;;;6.20;3.25;;;9.80;75.50;;;;;;6283884;28;20051;-82
2021/12/17 09:12:29;;;;;;;5.90;3.10;;;10.00;74.50;;;;;;6282648;28;20048;-82
2021/12/17 09:15:31;;;;;;;4.65;3.05;;;10.10;73.50;;;;;;6282733;28;20055;-82
2021/12/17 09:18:34;;;;;;;6.03;2.60;;;10.40;73.10;;;;;;6279294;28;20041;-83
2021/12/17 09:21:35;;;;;;;6.45;2.92;;;10.70;72.40;;;;;;6280559;28;20067;-82
2021/12/17 09:24:39;;;;;;;4.97;2.80;;;11.00;71.70;;;;;;6279398;28;20494;-82
2021/12/17 09:27:41;;;;;;;4.85;3.03;;;11.30;70.20;;;;;;6280847;28;20608;-84
2021/12/17 09:30:43;;;;;;;5.10;2.92;;;11.30;68.80;;;;;;6281894;28;20059;-82
2021/12/17 09:33:47;;;;;;;4.22;2.78;;;11.20;68.30;;;;;;6280127;28;20124;-83
2021/12/17 09:36:49;;;;;;;4.82;2.58;;;11.20;69.00;;;;;;6280882;28;20051;-82
2021/12/17 09:39:52;;;;;;;5.38;3.03;;;11.40;67.80;;;;;;6280961;28;20047;-83
2021/12/17 09:42:54;;;;;;;2.88;2.03;;;11.20;67.50;;;;;;6280380;28;20071;-82
2021/12/17 09:45:56;;;;;;;6.38;2.33;;;11.50;67.70;;;;;;6279342;28;20047;-83
2021/12/17 09:48:59;;;;;;;5.97;3.00;;;11.70;66.60;;;;;;6280426;28;20148;-83
2021/12/17 09:52:01;;;;;;;6.20;3.00;;;11.70;66.20;;;;;;6280422;28;20048;-83
2021/12/17 09:55:06;;;;;;;4.78;2.92;;;11.90;66.10;;;;;;6281243;28;20136;-83
2021/12/17 09:58:07;;;;;;;4.75;2.63;;;12.10;65.40;;;;;;6280250;28;20051;-83
2021/12/17 10:01:09;;;;;;;5.25;2.70;;;12.00;65.30;;;;;;6280324;28;20107;-81
2021/12/17 10:04:12;;;;;;;5.40;2.47;;;12.10;65.50;;;;;;6280264;28;20436;-82
2021/12/17 10:07:20;;;;;;;4.65;2.63;;;12.30;65.20;;;;;;6279769;28;20053;-82
2021/12/17 10:10:33;;;;;;;5.20;3.30;;;12.50;64.00;;;;;;6279234;28;20040;-81
2021/12/17 10:13:36;;;;;;;8.35;2.78;;;12.60;63.70;;;;;;6280348;28;20053;-85
2021/12/17 10:16:40;;;;;;;6.85;3.22;;;12.60;63.70;;;;;;6278568;28;20041;-84
2021/12/17 10:19:43;;;;;;;5.07;3.03;;;12.90;63.20;;;;;;6280335;28;20055;-84
2021/12/17 10:22:46;;;;;;;4.90;2.72;;;13.30;62.10;;;;;;6281259;28;20051;-84
2021/12/17 10:25:49;;;;;;;6.95;3.20;;;13.30;61.50;;;;;;6281971;28;20041;-85
2021/12/17 10:28:55;;;;;;;5.50;2.95;;;13.30;61.00;;;;;;6280357;28;20068;-84
2021/12/17 10:31:58;;;;;;;4.75;2.70;;;13.20;60.80;;;;;;6280045;28;20045;-84
2021/12/17 10:35:07;;;;;;;5.63;2.75;;;13.50;61.10;;;;;;6280288;28;20049;-84
2021/12/17 10:38:12;;;;;;;6.72;4.00;;;13.70;61.00;;;;;;6280713;28;20055;-85
2021/12/17 10:41:15;;;;;;;5.55;3.50;;;13.80;59.90;;;;;;6280312;28;20041;-84
2021/12/17 10:44:19;;;;;;;6.45;3.20;;;13.90;59.70;;;;;;6282477;28;20066;-84
2021/12/17 10:47:32;;;;;;;5.18;2.92;;;13.90;59.30;;;;;;6279927;28;20048;-84
2021/12/17 10:50:34;;;;;;;6.38;3.40;;;13.80;58.50;;;;;;6279921;28;20055;-84
2021/12/17 10:53:35;;;;;;;5.70;2.70;;;13.40;59.70;;;;;;6279033;28;20122;-84
2021/12/17 10:56:40;;;;;;;5.07;3.00;;;13.50;60.70;;;;;;6278285;28;20172;-84
2021/12/17 10:59:47;;;;;;;4.80;2.63;;;13.60;60.20;;;;;;6275853;28;20446;-83
2021/12/17 11:02:49;;;;;;;4.55;3.10;;;13.50;59.50;;;;;;6275444;28;20057;-85
2021/12/17 11:05:51;;;;;;;5.10;3.28;;;13.50;60.60;;;;;;6276779;28;20048;-84
2021/12/17 11:08:53;;;;;;;4.65;2.72;;;13.70;59.50;;;;;;6277594;28;20052;-84
2021/12/17 11:11:57;;;;;;;5.38;3.08;;;13.80;59.40;;;;;;6277333;28;20045;-84
2021/12/17 11:15:26;;;;;;;4.70;2.78;;;14.10;60.30;;;;;;6278884;28;20049;-84
2021/12/17 11:18:28;;;;;;;4.47;2.70;;;14.40;58.10;;;;;;6274435;28;20045;-83
2021/12/17 11:21:31;;;;;;;5.93;3.40;;;14.50;58.40;;;;;;6278273;28;20053;-82
2021/12/17 11:24:35;;;;;;;4.93;2.92;;;14.70;58.00;;;;;;6292467;28;20081;-82
2021/12/17 11:27:38;;;;;;;6.18;3.00;;;15.10;57.10;;;;;;6292499;28;20131;-81
2021/12/17 11:30:43;;;;;;;5.07;2.83;;;15.50;56.30;;;;;;6282734;28;20452;-81
2021/12/17 11:33:45;;;;;;;5.38;2.92;;;16.00;55.50;;;;;;6278582;28;20044;-82
2021/12/17 11:36:47;;;;;;;4.10;2.55;;;15.90;53.80;;;;;;6278857;28;20059;-84
2021/12/17 11:39:56;;;;;;;4.85;2.70;;;15.60;53.90;;;;;;6278701;28;20041;-82
2021/12/17 11:43:28;;;;;;;6.63;2.80;;;15.20;55.10;;;;;;6278517;28;20057;-82
2021/12/17 11:46:33;;;;;;;4.90;2.95;;;14.90;55.10;;;;;;6278289;28;20060;-82
2021/12/17 11:49:38;;;;;;;5.70;3.38;;;14.90;55.60;;;;;;6278776;28;20498;-82
2021/12/17 11:52:42;;;;;;;4.47;2.38;;;14.80;56.10;;;;;;6278142;28;20106;-82
2021/12/17 11:55:46;;;;;;;3.33;2.25;;;14.60;56.10;;;;;;6277759;28;20045;-81
2021/12/17 11:58:53;;;;;;;6.60;3.28;;;14.30;56.60;;;;;;6279209;28;20064;-83
2021/12/17 12:02:01;;;;;;;8.95;2.58;;;14.20;57.10;;;;;;6277061;28;20525;-84
2021/12/17 12:05:06;;;;;;;4.00;2.35;;;14.20;57.10;;;;;;6279264;28;20510;-83
2021/12/17 12:08:33;;;;;;;4.97;2.53;;;14.00;57.00;;;;;;6282654;28;20045;-82
2021/12/17 12:11:35;;;;;;;3.67;2.00;;;13.90;58.40;;;;;;6283323;28;20072;-83
2021/12/17 12:14:38;;;;;;;5.30;2.78;;;14.10;58.40;;;;;;6278943;28;20080;-82
2021/12/17 12:18:23;;;;;;;8.75;3.08;;;14.20;57.20;;;;;;6279219;28;20055;-83
2021/12/17 12:21:26;;;;;;;3.63;2.70;;;14.20;57.20;;;;;;6253577;28;20084;-83
2021/12/17 12:24:28;;;;;;;4.55;3.22;;;14.30;57.70;;;;;;6252937;28;20052;-85
2021/12/17 12:27:33;;;;;;;5.22;2.50;;;14.20;57.90;;;;;;6268356;28;20109;-85
2021/12/17 12:30:39;;;;;;;4.95;2.47;;;14.10;58.50;;;;;;6265444;28;20053;-81
2021/12/17 12:34:10;;;;;;;4.63;1.98;;;14.10;58.50;;;;;;6262214;28;20057;-80
2021/12/17 12:37:26;;;;;;;6.65;3.22;;;14.10;58.50;;;;;;6252247;28;20057;-81
2021/12/17 12:40:43;;;;;;;5.38;3.45;;;14.00;58.30;;;;;;6252425;28;20107;-82
2021/12/17 12:43:48;;;;;;;4.32;2.50;;;14.00;59.00;;;;;;6252993;28;20054;-82
2021/12/17 12:46:56;;;;;;;5.93;3.05;;;14.30;58.80;;;;;;6259169;28;20112;-84
2021/12/17 12:49:59;;;;;;;;;;;14.60;57.70;;;;;;6277262;28;20041;-84
2021/12/17 12:53:05;;;;;;;5.18;2.90;;;14.60;57.00;;;;;;6291329;28;19951;-83
2021/12/17 12:56:08;;;;;;;7.00;3.42;;;14.30;57.70;;;;;;6284312;28;20090;-81
2021/12/17 12:59:10;;;;;;;7.50;2.83;;;14.40;59.30;;;;;;6282425;28;20725;-82
2021/12/17 13:02:13;;;;;;;8.27;3.88;;;14.50;58.00;;;;;;6282261;28;20127;-81
2021/12/17 13:05:15;;;;;;;4.63;2.95;;;14.60;57.40;;;;;;6280453;28;20060;-83
2021/12/17 13:08:18;;;;;;;5.95;3.13;;;14.80;57.70;;;;;;6281759;28;20124;-83
2021/12/17 13:11:21;;;;;;;6.43;2.80;;;15.00;57.10;;;;;;6282294;28;20449;-81
2021/12/17 13:14:26;;;;;;;5.22;3.05;;;15.00;57.30;;;;;;6281057;28;20120;-81
2021/12/17 13:20:04;;;;;;;6.10;2.97;;;15.40;56.90;;;;;;6280973;28;20541;-82
2021/12/17 13:21:17;;;;;;;7.05;2.85;;;15.50;55.80;;;;;;6282586;28;20056;-82
2021/12/17 13:24:23;;;;;;;5.32;2.97;;;15.50;54.80;;;;;;6281952;28;20032;-84
2021/12/17 13:27:25;;;;;;;3.53;2.30;;;15.10;55.60;;;;;;6279003;28;20055;-83
2021/12/17 13:30:27;;;;;;;6.55;2.83;;;14.40;56.40;;;;;;6279194;28;20419;-81
2021/12/17 13:33:39;;;;;;;8.35;4.18;;;13.80;57.90;;;;;;6280694;28;20067;-82
2021/12/17 13:36:52;;;;;;;5.60;3.00;;;13.50;59.40;;;;;;6281335;28;20064;-81
2021/12/17 13:39:55;;;;;;;6.40;3.67;;;13.20;60.20;;;;;;6280440;28;24582;-81
2021/12/17 13:43:47;;;;;;;5.07;3.38;;;12.80;61.10;;;;;;6280190;28;20044;-83
2021/12/17 13:46:49;;;;;;;5.00;2.83;;;12.50;62.30;;;;;;6187751;28;20136;-82
2021/12/17 13:50:06;;;;;;;6.05;3.33;;;12.20;63.60;;;;;;6276842;28;20203;-82
2021/12/17 13:53:13;;;;;;;8.52;4.43;;;12.00;64.20;;;;;;6278516;28;20045;-82
2021/12/17 13:56:16;;;;;;;6.43;3.42;;;12.10;65.00;;;;;;6278117;28;20045;-82
2021/12/17 13:59:28;;;;;;;7.85;3.95;;;12.10;65.00;;;;;;6278787;28;20045;-82
2021/12/17 14:02:34;;;;;;;7.05;4.18;;;12.00;65.50;;;;;;6277821;28;20123;-82
2021/12/17 14:05:44;;;;;;;6.15;3.90;;;11.90;65.90;;;;;;6278320;28;20051;-81
2021/12/17 14:08:46;;;;;;;6.45;4.32;;;11.70;66.40;;;;;;6279589;28;20124;-82
2021/12/17 14:11:48;;;;;;;5.80;3.05;;;11.40;67.00;;;;;;6279145;28;20041;-82
2021/12/17 14:14:57;;;;;;;6.03;4.07;;;11.30;67.60;;;;;;6278866;28;20052;-82
2021/12/17 14:18:02;;;;;;;7.53;4.18;;;11.40;67.60;;;;;;6279383;28;20041;-83
2021/12/17 14:21:06;;;;;;;8.00;3.92;;;11.50;67.60;;;;;;6280205;28;20049;-82
2021/12/17 14:24:09;;;;;;;9.73;4.78;;;11.60;67.50;;;;;;6283928;28;20037;-81
2021/12/17 14:27:11;;;;;;;9.15;4.53;;;11.60;67.30;;;;;;6283613;28;20059;-81
2021/12/17 14:30:14;;;;;;;6.15;2.75;;;11.50;67.40;;;;;;6286435;28;20061;-82
2021/12/17 14:33:17;;;;;;;7.47;4.18;;;11.40;67.60;;;;;;6277441;28;20072;-80
2021/12/17 14:36:26;;;;;;;7.65;4.00;;;11.10;68.40;;;;;;6284401;28;20124;-80
2021/12/17 14:39:35;;;;;;;9.90;3.95;;;10.90;69.10;;;;;;6280553;28;20128;-82
2021/12/17 14:42:38;;;;;;;8.15;4.13;;;10.80;69.70;;;;;;6301059;28;20056;-81
2021/12/17 14:45:44;;;;;;;8.27;4.88;;;10.70;70.10;;;;;;6301025;28;20055;-82
2021/12/17 14:49:02;;;;;;;7.43;4.22;;;10.70;70.20;;;;;;6278327;28;20532;-81
2021/12/17 15:02:23;;;;;;;7.20;4.47;;;10.60;70.90;;;;;;6256767;28;20052;-81
2021/12/17 15:05:27;;;;;;;6.32;3.53;;;10.40;70.80;;;;;;6276309;28;20418;-81
2021/12/17 15:08:31;;;;;;;7.35;3.83;;;10.40;71.30;;;;;;6276683;28;20478;-81
2021/12/17 15:11:37;;;;;;;9.40;5.55;;;10.40;71.30;;;;;;6278947;28;20558;-82
2021/12/17 15:14:39;;;;;;;7.32;4.88;;;10.30;71.40;;;;;;6276385;28;20437;-80
2021/12/17 15:17:42;;;;;;;7.15;3.53;;;10.30;71.70;;;;;;6277646;28;20486;-80
2021/12/17 15:20:46;;;;;;;8.60;2.60;;;10.30;71.60;;;;;;6279432;28;20561;-82
2021/12/17 15:23:49;;;;;;;5.25;2.80;;;10.20;71.70;;;;;;6278663;28;20057;-81
2021/12/17 15:26:51;;;;;;;6.55;3.88;;;10.10;71.60;;;;;;6281651;28;20067;-81
2021/12/17 15:29:52;;;;;;;5.88;3.38;;;10.10;72.40;;;;;;6278747;28;20414;-80
2021/12/17 15:32:55;;;;;;;4.40;2.65;;;10.00;72.30;;;;;;6277813;28;20064;-81
2021/12/17 15:35:57;;;;;;;5.63;2.95;;;9.90;72.80;;;;;;6277194;28;20544;-81
2021/12/17 15:39:00;;;;;;;5.10;3.13;;;9.90;72.90;;;;;;6277965;28;20049;-81
2021/12/17 15:42:01;;;;;;;6.50;3.25;;;10.00;73.00;;;;;;6276302;28;20132;-82
2021/12/17 15:45:04;;;;;;;6.47;3.00;;;9.90;72.80;;;;;;6277523;28;20045;-81
2021/12/17 15:48:08;;;;;;;7.88;3.47;;;9.90;73.10;;;;;;6277621;28;20041;-82
2021/12/17 15:51:09;;;;;;;6.20;2.90;;;9.80;73.20;;;;;;6277385;28;20529;-82
2021/12/17 15:54:13;;;;;;;7.63;2.90;;;9.80;73.30;;;;;;6277501;28;20514;-82
2021/12/17 15:57:16;;;;;;;7.60;3.30;;;9.80;73.30;;;;;;6276521;28;20045;-81
2021/12/17 16:00:18;;;;;;;4.03;2.50;;;9.90;73.50;;;;;;6279293;28;20148;-80
2021/12/17 16:03:27;;;;;;;5.50;2.97;;;10.00;73.30;;;;;;6281423;28;20056;-80
2021/12/17 16:06:28;;;;;;;6.30;3.45;;;10.00;73.10;;;;;;6276634;28;20510;-79
2021/12/17 16:22:45;;;;;;;6.28;4.07;;;9.80;74.10;;;;;;6250799;28;20045;-81
2021/12/17 16:25:49;;;;;;;8.15;3.55;;;9.70;74.30;;;;;;6249968;28;20087;-81
2021/12/17 16:28:51;;;;;;;6.20;3.55;;;9.90;74.40;;;;;;6250685;28;20056;-82
2021/12/17 16:31:53;;;;;;;5.85;3.75;;;9.90;74.20;;;;;;6252977;28;20041;-80
2021/12/17 16:34:54;;;;;;;8.55;4.68;;;9.80;74.20;;;;;;6255256;28;20521;-81
2021/12/17 16:37:56;;;;;;;6.65;3.15;;;9.80;74.40;;;;;;6255210;28;20081;-81
2021/12/17 16:41:01;;;;;;;7.35;3.30;;;9.80;74.70;;;;;;6256008;28;20048;-82
2021/12/17 16:44:06;;;;;;;6.53;3.22;;;9.80;74.50;;;;;;6255731;28;20191;-80
2021/12/17 16:47:08;;;;;;;10.13;5.63;;;9.80;74.70;;;;;;6256100;28;20072;-80
2021/12/17 16:50:10;;;;;;;14.85;8.05;;;9.80;74.80;;;;;;6255861;28;20532;-81
2021/12/17 16:53:12;;;;;;;8.38;4.72;;;9.80;75.00;;;;;;6256005;28;20683;-81
2021/12/17 16:56:16;;;;;;;9.20;4.95;;;9.80;75.00;;;;;;6256130;28;20129;-81
2021/12/17 16:59:18;;;;;;;7.82;4.00;;;9.70;75.00;;;;;;6256938;28;20163;-82
2021/12/17 17:02:20;;;;;;;6.78;4.03;;;9.70;75.30;;;;;;6254530;28;20041;-81
2021/12/17 17:05:22;;;;;;;7.28;4.32;;;9.70;75.60;;;;;;6254537;28;20065;-82
2021/12/17 17:08:25;;;;;;;6.72;4.05;;;9.80;75.40;;;;;;6270229;28;20098;-81
2021/12/17 17:11:30;;;;;;;7.22;4.30;;;9.80;75.10;;;;;;6280695;28;20526;-81
2021/12/17 17:14:33;;;;;;;6.25;3.97;;;9.80;75.30;;;;;;6279389;28;20053;-80
2021/12/17 17:17:35;;;;;;;6.57;4.18;;;9.70;75.40;;;;;;6260550;28;20099;-81
2021/12/17 17:20:37;;;;;;;6.45;3.92;;;9.70;75.20;;;;;;6254608;28;20526;-81
2021/12/17 17:23:41;;;;;;;7.75;4.30;;;9.80;75.30;;;;;;6254889;28;20132;-80
2021/12/17 17:26:45;;;;;;;9.27;4.85;;;9.70;75.90;;;;;;6255436;28;20276;-82
2021/12/17 17:29:48;;;;;;;6.95;3.75;;;9.70;75.90;;;;;;6255024;28;20049;-82
2021/12/17 17:32:50;;;;;;;6.93;3.58;;;9.80;75.50;;;;;;6258808;28;20042;-81
2021/12/17 17:35:53;;;;;;;6.38;4.03;;;9.80;74.80;;;;;;6255163;28;20410;-81
2021/12/17 17:38:55;;;;;;;6.95;4.30;;;9.70;75.30;;;;;;6255432;28;20093;-81
2021/12/17 17:41:58;;;;;;;4.95;3.25;;;9.70;75.00;;;;;;6255371;28;20048;-81
2021/12/17 17:45:00;;;;;;;7.78;4.15;;;9.60;75.00;;;;;;6254085;28;20049;-79
2021/12/17 17:48:04;;;;;;;6.25;4.22;;;9.60;75.40;;;;;;6255070;28;20050;-79
2021/12/17 17:51:06;;;;;;;7.40;4.68;;;9.60;75.10;;;;;;6232203;28;20046;-80
2021/12/17 17:54:08;;;;;;;7.18;4.03;;;9.50;75.20;;;;;;6233329;28;20053;-79
2021/12/17 17:57:11;;;;;;;7.90;4.75;;;9.50;75.00;;;;;;6231558;28;20052;-79
2021/12/17 18:00:14;;;;;;;6.00;3.60;;;9.50;75.00;;;;;;6232132;28;20046;-80
2021/12/17 18:03:15;;;;;;;6.72;4.05;;;9.40;75.70;;;;;;6231881;28;20488;-81
2021/12/17 18:06:17;;;;;;;8.45;4.25;;;9.30;75.40;;;;;;6232246;28;20137;-80
2021/12/17 18:09:19;;;;;;;6.15;4.13;;;9.40;75.50;;;;;;6271090;28;20053;-80
2021/12/17 18:12:22;;;;;;;8.90;3.83;;;9.30;75.10;;;;;;6278415;28;20126;-80
2021/12/17 18:15:27;;;;;;;8.15;4.45;;;9.40;75.70;;;;;;6277742;28;20053;-79
2021/12/17 18:18:29;;;;;;;6.88;4.03;;;9.50;74.70;;;;;;6254019;28;20045;-79
2021/12/17 18:21:31;;;;;;;7.55;4.38;;;9.50;74.00;;;;;;6252747;28;20038;-80
2021/12/17 18:24:33;;;;;;;8.18;4.10;;;9.40;74.30;;;;;;6254300;28;20131;-79
2021/12/17 18:27:36;;;;;;;14.02;3.83;;;9.20;74.60;;;;;;6253876;28;20648;-79
2021/12/17 18:30:39;;;;;;;6.95;4.75;;;9.30;76.00;;;;;;6254975;28;20056;-81
2021/12/17 18:33:41;;;;;;;5.35;3.30;;;9.10;74.80;;;;;;6254442;28;20049;-80
2021/12/17 18:36:43;;;;;;;9.48;4.70;;;8.90;75.10;;;;;;6252802;28;20053;-81
2021/12/17 18:39:45;;;;;;;6.53;3.95;;;8.90;75.20;;;;;;6253637;28;20061;-81
2021/12/17 18:46:08;;;;;;;7.70;5.18;;;8.90;74.70;;;;;;6256230;28;20045;-79
2021/12/17 18:49:11;;;;;;;8.35;5.15;;;8.80;74.90;;;;;;6254837;28;20115;-80
2021/12/17 18:52:13;;;;;;;10.32;4.63;;;8.70;74.60;;;;;;6254302;28;20049;-81